createdAt,value
2022-09-13T07:01:45.006Z,99760.13
2022-09-13T07:04:15.693Z,99765.09
2022-09-13T07:06:43.721Z,99762.91
2022-09-13T07:09:13.057Z,99769.72
2022-09-13T07:11:41.843Z,99773.25
2022-09-13T07:14:09.675Z,99774.78
2022-09-13T07:16:37.376Z,99769.25
2022-09-13T07:19:06.986Z,99765.97
2022-09-13T07:21:35.757Z,99771.22
2022-09-13T07:24:10.835Z,99777.41
2022-09-13T07:26:39.877Z,99775.81
2022-09-13T07:29:22.715Z,99780.59
2022-09-13T07:31:51.465Z,99779.22
2022-09-13T07:34:20.602Z,99772.41
2022-09-13T07:36:49.222Z,99773.25
2022-09-13T07:39:22.616Z,99765.72
2022-09-13T07:41:51.632Z,99761.88
2022-09-13T07:44:19.297Z,99771.25
2022-09-13T07:46:48.097Z,99766.38
2022-09-13T07:49:21.105Z,99766.06
2022-09-13T07:51:51.574Z,99769.50
2022-09-13T07:54:20.236Z,99778.34
2022-09-13T07:56:50.535Z,99771.16
2022-09-13T07:59:19.627Z,99771.50
2022-09-13T08:01:48.672Z,99769.12
2022-09-13T08:04:19.675Z,99773.50
2022-09-13T08:06:50.908Z,99768.91
2022-09-13T08:09:19.991Z,99768.31
2022-09-13T08:11:48.427Z,99767.69
2022-09-13T08:14:20.731Z,99772.56
2022-09-13T08:16:49.883Z,99775.53
2022-09-13T08:19:18.287Z,99775.53
2022-09-13T08:21:46.833Z,99770.13
2022-09-13T08:24:19.784Z,99771.66
2022-09-13T08:26:57.874Z,99772.41
2022-09-13T08:29:26.042Z,99764.69
2022-09-13T08:31:56.970Z,99762.03
2022-09-13T08:34:24.737Z,99756.69
2022-09-13T08:36:52.559Z,99760.34
2022-09-13T08:39:19.906Z,99765.63
2022-09-13T08:42:00.681Z,99758.13
2022-09-13T08:44:29.728Z,99763.38
2022-09-13T08:47:01.279Z,99762.94
2022-09-13T08:49:34.799Z,99763.34
2022-09-13T08:52:12.761Z,99759.97
2022-09-13T08:54:41.391Z,99760.44
2022-09-13T08:57:15.068Z,99754.44
2022-09-13T09:00:08.276Z,99755.72
2022-09-13T09:03:02.495Z,99756.72
2022-09-13T09:05:30.982Z,99754.91
2022-09-13T09:08:19.815Z,99745.12
2022-09-13T09:10:52.706Z,99753.69
2022-09-13T09:13:26.597Z,99751.41
2022-09-13T09:15:55.986Z,99744.59
2022-09-13T09:18:27.926Z,99746.78
2022-09-13T09:20:59.137Z,99742.03
2022-09-13T09:23:33.923Z,99743.84
2022-09-13T09:26:17.803Z,99737.44
2022-09-13T09:28:56.024Z,99732.66
2022-09-13T09:31:34.381Z,99723.66
2022-09-13T09:34:04.881Z,99720.31
2022-09-13T09:36:38.078Z,99719.53
2022-09-13T09:39:06.882Z,99717.63
2022-09-13T09:41:38.765Z,99710.69
2022-09-13T09:44:23.973Z,99715.50
2022-09-13T09:46:57.219Z,99719.78
2022-09-13T09:49:45.905Z,99719.16
2022-09-13T09:52:14.914Z,99707.22
2022-09-13T09:54:42.408Z,99708.78
2022-09-13T09:57:11.544Z,99696.75
2022-09-13T09:59:42.289Z,99697.06
2022-09-13T10:02:20.554Z,99695.06
2022-09-13T10:04:56.013Z,99692.81
2022-09-13T10:07:32.757Z,99682.06
2022-09-13T10:10:05.982Z,99678.38
2022-09-13T10:12:34.556Z,99675.06
2022-09-13T10:15:17.464Z,99669.78
2022-09-13T10:18:16.776Z,99669.31
2022-09-13T10:21:08.948Z,99672.66
2022-09-13T10:23:53.554Z,99664.88
2022-09-13T10:26:22.878Z,99670.63
2022-09-13T10:28:55.014Z,99661.62
2022-09-13T10:31:28.438Z,99657.41
2022-09-13T10:34:02.968Z,99657.06
2022-09-13T10:36:51.519Z,99651.16
2022-09-13T10:39:21.877Z,99650.72
2022-09-13T10:42:09.458Z,99643.47
2022-09-13T10:44:41.802Z,99650.97
2022-09-13T10:47:14.174Z,99648.03
2022-09-13T10:49:43.698Z,99651.59
2022-09-13T10:52:29.030Z,99650.97
2022-09-13T10:54:57.939Z,99651.31
2022-09-13T10:57:35.663Z,99644.16
2022-09-13T11:00:12.727Z,99649.97
2022-09-13T11:02:53.765Z,99648.94
2022-09-13T11:05:45.771Z,99643.19
2022-09-13T11:08:17.684Z,99649.56
2022-09-13T11:10:49.341Z,99646.34
2022-09-13T11:13:33.899Z,99634.56
2022-09-13T11:16:03.858Z,99633.03
2022-09-13T11:18:39.550Z,99633.19
2022-09-13T11:21:27.793Z,99630.34
2022-09-13T11:24:07.709Z,99621.06
2022-09-13T11:26:54.966Z,99624.12
2022-09-13T11:29:26.139Z,99626.03
2022-09-13T11:31:58.639Z,99626.59
2022-09-13T11:35:06.384Z,99617.16
2022-09-13T11:37:51.036Z,99622.56
2022-09-13T11:40:27.817Z,99616.59
2022-09-13T11:42:59.124Z,99611.59
2022-09-13T11:45:31.577Z,99600.84
2022-09-13T11:48:08.470Z,99602.28
2022-09-13T11:50:55.424Z,99596.44
2022-09-13T11:53:36.260Z,99591.38
2022-09-13T11:56:05.883Z,99583.34
2022-09-13T11:58:43.468Z,99592.41
2022-09-13T12:01:12.375Z,99587.38
2022-09-13T12:04:02.146Z,99583.66
2022-09-13T12:06:32.784Z,99585.94
2022-09-13T12:09:27.050Z,99579.78
2022-09-13T12:11:56.999Z,99577.72
2022-09-13T12:14:26.699Z,99581.31
2022-09-13T12:16:56.097Z,99587.63
2022-09-13T12:19:38.103Z,99582.50
2022-09-13T12:22:10.074Z,99584.41
2022-09-13T12:24:45.870Z,99569.00
2022-09-13T12:27:16.807Z,99577.19
2022-09-13T12:29:56.161Z,99572.09
2022-09-13T12:38:43.894Z,99568.41
2022-09-13T12:41:15.743Z,99559.22
2022-09-13T12:43:51.250Z,99565.53
2022-09-13T12:46:37.732Z,99568.78
2022-09-13T12:49:11.921Z,99557.44
2022-09-13T12:51:46.845Z,99553.94
2022-09-13T12:54:21.807Z,99546.19
2022-09-13T12:56:52.548Z,99557.28
2022-09-13T12:59:27.765Z,99556.94
2022-09-13T13:01:58.883Z,99555.59
2022-09-13T13:04:35.450Z,99546.81
2022-09-13T13:07:07.416Z,99549.81
2022-09-13T13:09:41.136Z,99547.94
2022-09-13T13:12:13.165Z,99550.84
2022-09-13T13:14:45.406Z,99541.94
2022-09-13T13:17:36.871Z,99546.28
2022-09-13T13:20:26.857Z,99534.50
2022-09-13T13:23:01.792Z,99533.16
2022-09-13T13:25:31.903Z,99530.72
2022-09-13T13:28:00.036Z,99531.13
2022-09-13T13:30:34.114Z,99533.19
2022-09-13T13:33:19.086Z,99530.91
2022-09-13T13:35:47.466Z,99526.53
2022-09-13T13:38:38.834Z,99520.31
2022-09-13T13:41:31.825Z,99527.06
2022-09-13T13:44:01.760Z,99526.06
2022-09-13T13:46:33.132Z,99505.50
2022-09-13T13:49:27.016Z,99519.00
2022-09-13T13:52:11.930Z,99504.41
2022-09-13T13:54:50.545Z,99512.59
2022-09-13T13:57:39.858Z,99500.53
2022-09-13T14:04:13.849Z,99513.91
2022-09-13T14:06:49.878Z,99512.87
2022-09-13T14:09:22.906Z,99518.09
2022-09-13T14:11:55.345Z,99504.56
2022-09-13T14:14:35.076Z,99502.62
2022-09-13T14:17:26.862Z,99500.38
2022-09-13T14:20:06.832Z,99508.25
2022-09-13T14:22:44.977Z,99501.38
2022-09-13T14:25:14.802Z,99505.16
2022-09-13T14:27:46.149Z,99488.59
2022-09-13T14:30:20.140Z,99485.75
2022-09-13T14:32:51.843Z,99481.72
2022-09-13T14:35:33.744Z,99482.34
2022-09-13T14:38:14.874Z,99484.84
2022-09-13T14:40:46.844Z,99491.00
2022-09-13T14:43:23.013Z,99485.34
2022-09-13T14:46:01.620Z,99481.19
2022-09-13T14:48:37.851Z,99482.84
2022-09-13T14:51:26.220Z,99479.34
2022-09-13T14:54:13.885Z,99475.37
2022-09-13T14:57:01.957Z,99468.41
2022-09-13T14:59:34.813Z,99468.56
2022-09-13T15:02:18.066Z,99465.44
2022-09-13T15:04:49.398Z,99464.97
2022-09-13T15:07:20.002Z,99468.72
2022-09-13T15:09:50.082Z,99477.53
2022-09-13T15:12:25.845Z,99469.31
2022-09-13T15:15:13.314Z,99462.84
2022-09-13T15:18:07.970Z,99458.28
2022-09-13T15:20:46.469Z,99463.03
2022-09-13T15:23:42.974Z,99457.81
2022-09-13T15:26:28.853Z,99457.09
2022-09-13T15:29:06.123Z,99450.38
2022-09-13T15:31:37.072Z,99439.72
2022-09-13T15:34:18.155Z,99439.38
2022-09-13T15:36:49.049Z,99434.78
2022-09-13T15:39:20.801Z,99431.25
2022-09-13T15:42:01.885Z,99428.19
2022-09-13T15:44:41.947Z,99437.34
2022-09-13T15:47:21.842Z,99434.81
2022-09-13T15:52:25.073Z,99432.81
2022-09-13T15:55:02.949Z,99440.22
2022-09-13T15:57:31.272Z,99434.31
2022-09-13T16:02:37.302Z,99425.56
2022-09-13T16:05:09.833Z,99421.31
2022-09-13T16:07:38.871Z,99409.66
2022-09-13T16:10:17.376Z,99414.75
2022-09-13T16:12:45.404Z,99417.13
2022-09-13T16:15:20.841Z,99413.22
2022-09-13T16:17:49.047Z,99409.00
2022-09-13T16:20:24.065Z,99411.19
2022-09-13T16:22:59.850Z,99412.72
2022-09-13T16:25:34.816Z,99416.41
2022-09-13T16:28:21.393Z,99406.31
2022-09-13T16:30:54.943Z,99404.41
2022-09-13T16:33:32.324Z,99404.91
2022-09-13T16:36:02.467Z,99402.03
2022-09-13T16:38:48.793Z,99409.66
2022-09-13T16:41:18.528Z,99407.31
2022-09-13T16:43:56.822Z,99404.91
2022-09-13T16:46:25.870Z,99403.53
2022-09-13T16:48:56.247Z,99399.41
2022-09-13T16:51:24.983Z,99395.91
2022-09-13T16:53:54.729Z,99405.44
2022-09-13T16:56:26.842Z,99404.09
2022-09-13T16:58:54.695Z,99409.28
2022-09-13T17:01:26.993Z,99403.81
2022-09-13T17:04:06.814Z,99404.66
2022-09-13T17:06:35.119Z,99406.59
2022-09-13T17:09:05.466Z,99415.69
2022-09-13T17:11:42.883Z,99411.41
2022-09-13T17:14:17.973Z,99413.66
2022-09-13T17:19:36.873Z,99424.06
2022-09-13T17:22:11.275Z,99423.09
2022-09-13T17:24:50.394Z,99420.19
2022-09-13T17:27:24.538Z,99411.78
2022-09-13T17:29:58.166Z,99420.97
2022-09-13T17:32:28.885Z,99418.72
2022-09-13T17:37:44.349Z,99425.94
2022-09-13T17:40:20.139Z,99419.63
2022-09-13T17:42:51.813Z,99416.66
2022-09-13T17:45:28.589Z,99414.09
2022-09-13T17:48:07.985Z,99410.16
2022-09-13T17:50:42.944Z,99412.69
2022-09-13T17:53:15.852Z,99418.28
2022-09-13T17:55:57.905Z,99422.59
2022-09-13T17:58:29.963Z,99413.53
2022-09-13T18:03:48.233Z,99424.31
2022-09-13T18:06:28.007Z,99423.47
2022-09-13T18:08:59.884Z,99418.81
2022-09-13T18:11:34.140Z,99415.53
2022-09-13T18:16:59.514Z,99426.88
2022-09-13T18:19:45.822Z,99425.25
2022-09-13T18:27:39.911Z,99429.34
2022-09-13T18:30:16.389Z,99439.97
2022-09-13T18:32:57.203Z,99441.41
2022-09-13T18:35:35.951Z,99438.31
2022-09-13T18:38:07.043Z,99445.94
2022-09-13T18:46:06.018Z,99460.69
